LPBJGCLA

Guest
Details From LPBJ - Beja
To GCLA - La Palma
Flight Number -
Tags Generated
Created
Modified
Stats Distance 752 nm / 1,393 km
Max Altitude 0 ft / 0 m
Waypoints 3
Social Downloads 1
Likes 0
Share VATSIM

Download

Looking for another format? Having issues loading an existing format? Contact us
Advertisement - Login to hide

Notes

Generated

Route

LPBJ BX GCLA

ID Type Via Altitude Latitude Longitude Leg Dist Tot Dist Heading (true) Name
O LPBJ APT - 0 ft / 0 m 38.06544˚ -7.93170˚ - 0 nm - -
BX NDB - 0 ft / 0 m 28.60169˚ -17.75684˚ 751 nm 751 nm 224° / 218° LA PALMA NDB
O GCLA APT - 0 ft / 0 m 28.61659˚ -17.75542˚ 0 nm 752 nm 5° / 5° -

Altitude Profile

Advertisement - Login to hide

Weather


0- 5 10 15 20 25 30 35+ Temperature / ° C

Clouds and Precipitation
Forecast for 2017-12-11 06:00 UTC. Updated an hour ago

Ground ~20,000 ft ~40,000 ft Winds

LPBJ

Details ICAO LPBJ
Name BEJA
Region Portugal
Timezone Europe/Lisbon (UTC+0.0)
Stats Elevation 636 ft / 194 m (AMSL)
Location 38.078784° -7.931182°
Runways 2
Magnetic Variation 1.948° W

METAR

LPBJ 110400Z 31022KT 5000 RA SCT005 BKN020 BKN035 10/09 Q1001

Decode

TAF

TAF TAF LPBJ 102310Z 1100/1124 24018G30KT 6000 -RA BKN012 BKN018 TEMPO 1100/1103 25025G42KT 2000 +RADZ BR BKN004 BKN008 BECMG 1103/1105 30012KT 9999 NSW SCT015 SCT030 TEMPO 1103/1105 31025G42KT 2000 +RADZ BR BKN004 BKN008 TEMPO 1111/1118 31018G30KT 5000 SHRA BKN015 FEW020TCU

Decode

Departure Runways

ID Width Length Bearing (true) Bearing (mag) Surface Threshold Offset Overrun Length
01L 197 ft / 60 m 11,341 ft / 3,457 m 5.90° 7.85° Concrete 0 ft / 0 m 902 ft / 275 m
01R 98 ft / 30 m 9,699 ft / 2,956 m 5.91° 7.86° Concrete 0 ft / 0 m 804 ft / 245 m
19L 98 ft / 30 m 9,699 ft / 2,956 m 185.91° 187.86° Concrete 0 ft / 0 m 833 ft / 254 m
19R 197 ft / 60 m 11,341 ft / 3,457 m 185.90° 187.85° Concrete 0 ft / 0 m 902 ft / 275 m

GCLA

Details ICAO GCLA (SPC)
Name La Palma
Region Canary Islands
Timezone Atlantic/Canary (UTC+0.0)
Stats Elevation 107 ft / 33 m (AMSL)
Location 28.626480° -17.755613°
Runways 1
Magnetic Variation 5.523° W

METAR

GCLA 110400Z AUTO VRB02KT 9999 NCD 19/13 Q1022

Decode

TAF

TAF GCLA 110200Z 1103/1203 20005KT 9999 SCT025 TX23/1113Z TN17/1106Z BECMG 1112/1114 14010KT PROB40 TEMPO 1119/1203 3000 RA BKN014

Decode

Destination Runways

ID Width Length Bearing (true) Bearing (mag) Surface Threshold Offset Overrun Length
01 148 ft / 45 m 7,240 ft / 2,207 m 359.02° 4.54° Asphalt 0 ft / 0 m 279 ft / 85 m
19 148 ft / 45 m 7,240 ft / 2,207 m 179.02° 184.54° Asphalt 0 ft / 0 m 236 ft / 72 m